615VGS Twitter

615vgs We'll be back as soon as we can, doing what we love. In the meantime, HD and volume up... http://t.co/b2NWCmhaHx
615vgs @ReigateBeat @metpoliceuk @SurreyFRS @LondonFire @RoyalAirForceUK Many thanks for your support with our LIVEX. Much appreciated.
615vgs Slightly different from your average day at RAF Kenley... Many thanks to all staff and colleagues from partner agencies that attended.

615VGS Facebook

Staff Login


Staff who require login details should contact the MCO.

Join 615 VGS

 

 

615 VGS Partner

bigatmo

Course Photos 2013

KY Aviation Wx

[source: ADDS]
METAR
EGKB 272020Z 19008KT CAVOK 04/00 Q1019 =
TAF
SR / SS: 06:45 / 17:38 UTC (Sunrise/Sunset 2015-02-28)